Time;durP1;ratioP1;P1;durP2;ratioP2;P2;SDS_P1;SDS_P2;PMS_P1;PMS_P2;Temp;Humidity;BMP_temperature;BMP_pressure;BME280_temperature;BME280_humidity;BME280_pressure;Samples;Min_cycle;Max_cycle;Signal;HPM_P1;HPM_P2
2023/07/17 00:00:57;;;;;;;4.25;1.50;;;23.70;63.20;;;;;;5035065;28;20504;-63
2023/07/17 00:03:22;;;;;;;3.70;1.40;;;23.70;63.10;;;;;;5032344;28;20038;-63
2023/07/17 00:05:50;;;;;;;3.80;1.50;;;23.70;63.10;;;;;;5034777;28;20048;-63
2023/07/17 00:08:16;;;;;;;2.58;1.17;;;23.60;63.10;;;;;;5033206;28;20137;-63
2023/07/17 00:10:43;;;;;;;2.08;1.00;;;23.60;63.10;;;;;;5032357;28;20137;-63
2023/07/17 00:13:09;;;;;;;3.27;1.37;;;23.60;63.10;;;;;;5034526;28;20046;-63
2023/07/17 00:15:34;;;;;;;2.50;1.35;;;23.60;63.10;;;;;;5033694;28;20396;-63
2023/07/17 00:18:00;;;;;;;2.55;1.15;;;23.60;63.10;;;;;;5032949;28;20048;-64
2023/07/17 00:20:26;;;;;;;2.60;1.38;;;23.60;63.10;;;;;;5034637;28;20045;-63
2023/07/17 00:22:51;;;;;;;3.17;1.38;;;23.60;63.10;;;;;;5033416;28;20049;-64
2023/07/17 00:25:17;;;;;;;2.40;1.20;;;23.60;63.10;;;;;;5034643;28;20136;-63
2023/07/17 00:27:43;;;;;;;2.85;1.17;;;23.60;63.10;;;;;;5034195;28;20038;-63
2023/07/17 00:30:09;;;;;;;2.00;1.17;;;23.60;63.10;;;;;;5033448;28;20045;-63
2023/07/17 00:32:34;;;;;;;2.72;1.42;;;23.60;63.10;;;;;;5034053;28;20550;-63
2023/07/17 00:35:00;;;;;;;2.63;1.20;;;23.60;63.10;;;;;;5034773;28;20042;-63
2023/07/17 00:37:26;;;;;;;3.08;1.23;;;23.60;63.10;;;;;;5033470;28;20041;-64
2023/07/17 00:39:52;;;;;;;2.42;1.10;;;23.60;63.10;;;;;;5032560;28;20037;-63
2023/07/17 00:42:17;;;;;;;4.15;1.30;;;23.60;63.10;;;;;;5032947;28;20112;-64
2023/07/17 00:44:43;;;;;;;2.70;1.20;;;23.60;63.10;;;;;;5033580;28;20041;-64
2023/07/17 00:47:10;;;;;;;2.55;1.08;;;23.60;63.10;;;;;;5033053;28;20137;-63
2023/07/17 00:49:35;;;;;;;3.10;1.13;;;23.60;63.10;;;;;;5033043;28;20045;-64
2023/07/17 00:52:01;;;;;;;3.40;1.20;;;23.50;63.00;;;;;;5031891;28;20029;-64
2023/07/17 00:54:28;;;;;;;3.13;1.10;;;23.50;63.00;;;;;;5032544;28;20489;-64
2023/07/17 00:56:54;;;;;;;2.80;1.10;;;23.50;63.00;;;;;;5034018;28;20041;-64
2023/07/17 00:59:21;;;;;;;2.92;1.20;;;23.50;63.10;;;;;;4999315;28;20049;-64
2023/07/17 01:01:46;;;;;;;2.25;1.00;;;23.50;63.00;;;;;;5031758;28;20084;-64
2023/07/17 01:04:12;;;;;;;2.65;1.33;;;23.50;63.00;;;;;;5015911;28;20081;-64
2023/07/17 01:06:41;;;;;;;2.33;1.08;;;23.50;63.00;;;;;;5032425;28;20069;-64
2023/07/17 01:09:08;;;;;;;2.83;1.08;;;23.50;63.00;;;;;;5033569;28;20037;-64
2023/07/17 01:11:34;;;;;;;2.25;1.17;;;23.50;63.00;;;;;;5032088;28;20489;-63
2023/07/17 01:13:59;;;;;;;3.22;1.10;;;23.50;63.00;;;;;;5032689;28;20068;-64
2023/07/17 01:16:25;;;;;;;2.97;1.15;;;23.50;63.00;;;;;;5033435;28;20452;-64
2023/07/17 01:18:51;;;;;;;1.88;0.90;;;23.50;63.10;;;;;;5030927;28;20382;-64
2023/07/17 01:21:19;;;;;;;2.70;1.00;;;23.50;63.00;;;;;;5032954;28;20049;-64
2023/07/17 01:23:45;;;;;;;2.78;1.30;;;23.50;63.00;;;;;;5032624;28;20072;-64
2023/07/17 01:26:14;;;;;;;3.58;1.10;;;23.50;63.00;;;;;;5031313;28;20401;-63
2023/07/17 01:28:40;;;;;;;1.83;1.02;;;23.50;63.00;;;;;;5031459;28;20075;-64
2023/07/17 01:31:06;;;;;;;2.65;1.30;;;23.50;63.00;;;;;;5027418;28;20393;-64
2023/07/17 01:33:32;;;;;;;3.00;1.08;;;23.50;63.00;;;;;;5026470;28;20076;-64
2023/07/17 01:35:58;;;;;;;2.03;1.05;;;23.50;63.00;;;;;;5032926;28;20049;-64
2023/07/17 01:38:24;;;;;;;2.80;1.25;;;23.50;63.00;;;;;;5019182;28;20410;-64
2023/07/17 01:40:51;;;;;;;2.67;1.10;;;23.50;63.00;;;;;;5012381;28;20477;-64
2023/07/17 01:43:17;;;;;;;2.30;1.10;;;23.50;63.00;;;;;;5025524;28;20073;-64
2023/07/17 01:45:43;;;;;;;3.15;1.40;;;23.50;63.00;;;;;;5031238;28;20126;-64
2023/07/17 01:48:09;;;;;;;2.17;1.10;;;23.50;63.00;;;;;;5032088;28;20041;-64
2023/07/17 01:50:34;;;;;;;3.45;1.23;;;23.50;63.00;;;;;;5030946;28;20041;-64
2023/07/17 01:53:00;;;;;;;2.05;1.02;;;23.50;63.00;;;;;;5032641;28;20041;-63
2023/07/17 01:55:25;;;;;;;2.35;1.25;;;23.50;63.00;;;;;;5031785;28;20119;-64
2023/07/17 01:57:51;;;;;;;2.53;1.10;;;23.50;63.00;;;;;;5030870;28;20421;-64
2023/07/17 02:00:17;;;;;;;3.20;1.10;;;23.50;63.00;;;;;;5032500;28;20046;-64
2023/07/17 02:02:43;;;;;;;8.70;1.42;;;23.50;63.10;;;;;;5024310;28;20079;-64
2023/07/17 02:05:09;;;;;;;2.25;1.20;;;23.40;63.10;;;;;;5012486;28;20041;-63
2023/07/17 02:07:34;;;;;;;2.83;1.10;;;23.40;63.00;;;;;;5009977;28;20449;-64
2023/07/17 02:10:00;;;;;;;2.38;1.20;;;23.40;63.00;;;;;;5011944;28;20482;-63
2023/07/17 02:12:25;;;;;;;2.67;1.10;;;23.50;63.00;;;;;;5016965;28;20041;-63
2023/07/17 02:14:51;;;;;;;2.00;1.00;;;23.40;63.00;;;;;;5032415;28;20080;-63
2023/07/17 02:17:17;;;;;;;1.80;1.00;;;23.40;63.00;;;;;;5031409;28;20447;-63
2023/07/17 02:19:42;;;;;;;3.10;1.38;;;23.40;63.00;;;;;;5032225;28;20042;-64
2023/07/17 02:22:08;;;;;;;3.33;1.27;;;23.40;63.00;;;;;;5031285;28;20057;-63
2023/07/17 02:24:34;;;;;;;2.10;1.00;;;23.40;63.00;;;;;;5032154;28;20053;-63
2023/07/17 02:27:01;;;;;;;3.72;1.08;;;23.40;63.00;;;;;;5032269;28;20042;-63
2023/07/17 02:29:26;;;;;;;3.63;1.10;;;23.40;63.00;;;;;;5030103;28;20049;-63
2023/07/17 02:31:52;;;;;;;2.08;1.08;;;23.40;63.00;;;;;;5033327;28;20048;-63
2023/07/17 02:34:18;;;;;;;2.40;1.00;;;23.40;63.00;;;;;;5034668;28;20563;-63
2023/07/17 02:36:43;;;;;;;2.25;1.08;;;23.40;63.00;;;;;;5034074;28;20053;-63
2023/07/17 02:39:09;;;;;;;2.45;0.95;;;23.40;63.00;;;;;;5034785;28;20435;-63
2023/07/17 02:41:34;;;;;;;2.13;0.90;;;23.40;63.00;;;;;;5036241;28;20085;-63
2023/07/17 02:44:00;;;;;;;2.40;1.05;;;23.40;63.00;;;;;;5035335;28;20041;-63
2023/07/17 02:46:26;;;;;;;2.35;1.08;;;23.40;63.10;;;;;;5035064;28;20495;-63
2023/07/17 02:48:52;;;;;;;2.20;1.00;;;23.40;63.10;;;;;;5035643;28;20485;-65
2023/07/17 02:51:17;;;;;;;2.58;1.10;;;23.40;63.10;;;;;;5035235;28;20037;-63
2023/07/17 02:53:43;;;;;;;3.67;1.02;;;23.40;63.00;;;;;;5035340;28;20052;-63
2023/07/17 02:56:08;;;;;;;2.78;1.15;;;23.40;63.10;;;;;;5036114;28;20520;-63
2023/07/17 02:58:35;;;;;;;3.03;1.00;;;23.40;63.10;;;;;;5034950;28;20045;-63
2023/07/17 03:01:00;;;;;;;2.38;1.20;;;23.30;63.00;;;;;;5034470;28;20053;-63
2023/07/17 03:03:26;;;;;;;1.88;1.05;;;23.30;63.00;;;;;;5035225;28;20037;-63
2023/07/17 03:05:55;;;;;;;3.42;1.10;;;23.30;63.10;;;;;;5033388;28;20046;-63
2023/07/17 03:08:20;;;;;;;3.05;1.33;;;23.30;63.10;;;;;;5034479;28;20112;-63
2023/07/17 03:10:46;;;;;;;2.05;1.27;;;23.30;63.10;;;;;;5035641;28;20178;-64
2023/07/17 03:13:11;;;;;;;2.42;1.20;;;23.30;63.10;;;;;;5034486;28;20044;-63
2023/07/17 03:15:37;;;;;;;2.38;1.27;;;23.30;63.10;;;;;;5035586;28;20071;-64
2023/07/17 03:18:03;;;;;;;2.45;0.98;;;23.30;63.10;;;;;;5033848;28;20037;-63
2023/07/17 03:20:28;;;;;;;2.03;1.02;;;23.40;63.10;;;;;;5033472;28;20045;-64
2023/07/17 03:22:54;;;;;;;2.58;1.10;;;23.30;63.10;;;;;;5035590;28;20048;-64
2023/07/17 03:25:19;;;;;;;2.20;1.15;;;23.30;63.10;;;;;;5033238;28;20076;-64
2023/07/17 03:27:45;;;;;;;2.53;1.08;;;23.30;63.10;;;;;;5034893;28;20116;-63
2023/07/17 03:30:11;;;;;;;2.10;1.10;;;23.30;63.10;;;;;;5035550;28;20052;-63
2023/07/17 03:32:38;;;;;;;2.80;1.10;;;23.30;63.10;;;;;;5034214;28;20096;-63
2023/07/17 03:35:05;;;;;;;1.95;0.98;;;23.30;63.10;;;;;;5035178;28;20041;-64
2023/07/17 03:37:30;;;;;;;2.83;1.00;;;23.30;63.20;;;;;;5033346;28;20075;-64
2023/07/17 03:39:56;;;;;;;2.33;1.25;;;23.30;63.10;;;;;;5014814;28;20117;-63
2023/07/17 03:42:21;;;;;;;3.17;1.30;;;23.30;63.20;;;;;;5015314;28;20034;-63
2023/07/17 03:44:47;;;;;;;1.65;0.90;;;23.30;63.20;;;;;;5013797;28;20096;-64
2023/07/17 03:47:13;;;;;;;1.75;1.00;;;23.30;63.20;;;;;;5014665;28;20533;-63
2023/07/17 03:49:38;;;;;;;1.60;0.90;;;23.30;63.20;;;;;;5015043;28;20049;-63
2023/07/17 03:52:04;;;;;;;2.55;0.90;;;23.30;63.20;;;;;;5015352;28;20050;-64
2023/07/17 03:54:30;;;;;;;1.95;1.20;;;23.30;63.20;;;;;;5012634;28;20065;-64
2023/07/17 03:56:55;;;;;;;3.05;1.00;;;23.30;63.20;;;;;;5013766;28;20046;-64
2023/07/17 03:59:24;;;;;;;3.00;1.00;;;23.30;63.20;;;;;;5013925;28;20045;-64
2023/07/17 04:01:50;;;;;;;1.80;1.08;;;23.30;63.20;;;;;;5020950;28;20469;-64
2023/07/17 04:04:15;;;;;;;2.05;0.90;;;23.30;63.20;;;;;;5016447;28;20042;-64
2023/07/17 04:06:41;;;;;;;2.85;1.30;;;23.30;63.20;;;;;;5012969;28;20049;-63
2023/07/17 04:09:07;;;;;;;2.83;0.90;;;23.30;63.20;;;;;;5012720;28;20472;-64
2023/07/17 04:11:33;;;;;;;1.88;1.00;;;23.30;63.20;;;;;;5013550;28;20042;-64
2023/07/17 04:13:59;;;;;;;2.47;0.90;;;23.20;63.20;;;;;;5014761;28;20053;-64
2023/07/17 04:16:25;;;;;;;2.80;0.98;;;23.20;63.20;;;;;;5014057;28;20049;-64
2023/07/17 04:18:51;;;;;;;1.42;0.80;;;23.20;63.20;;;;;;5023319;28;20045;-64
2023/07/17 04:21:16;;;;;;;1.70;1.05;;;23.20;63.20;;;;;;5032737;28;20397;-64
2023/07/17 04:23:42;;;;;;;2.22;1.20;;;23.20;63.20;;;;;;5031676;28;20038;-64
2023/07/17 04:26:07;;;;;;;2.88;1.17;;;23.20;63.30;;;;;;5033282;28;20045;-64
2023/07/17 04:28:33;;;;;;;1.75;1.00;;;23.20;63.30;;;;;;5033510;28;20111;-64
2023/07/17 04:31:02;;;;;;;1.90;1.00;;;23.20;63.40;;;;;;5032789;28;20055;-63
2023/07/17 04:33:28;;;;;;;1.75;1.00;;;23.20;63.50;;;;;;5033907;28;20056;-64
2023/07/17 04:35:56;;;;;;;3.58;0.90;;;23.20;63.50;;;;;;5032226;28;20046;-64
2023/07/17 04:38:21;;;;;;;2.10;1.00;;;23.20;63.50;;;;;;5034116;28;20073;-64
2023/07/17 04:40:47;;;;;;;1.85;1.10;;;23.20;63.50;;;;;;5033949;28;20489;-64
2023/07/17 04:43:13;;;;;;;2.05;0.90;;;23.20;63.50;;;;;;5031657;28;20048;-64
2023/07/17 04:45:42;;;;;;;3.33;1.20;;;23.30;63.60;;;;;;5033625;28;20444;-64
2023/07/17 04:48:07;;;;;;;1.88;1.15;;;23.30;63.70;;;;;;5033802;28;20033;-64
2023/07/17 04:50:33;;;;;;;2.50;1.00;;;23.30;63.60;;;;;;5032560;28;20428;-63
2023/07/17 04:52:59;;;;;;;2.58;1.00;;;23.30;63.60;;;;;;5034008;28;20469;-64
2023/07/17 04:55:24;;;;;;;2.00;1.05;;;23.30;63.60;;;;;;5033091;28;20057;-63
2023/07/17 04:57:50;;;;;;;2.00;1.00;;;23.30;63.60;;;;;;5031600;28;20049;-63
2023/07/17 05:00:16;;;;;;;1.92;1.00;;;23.30;63.50;;;;;;5032864;28;20045;-64
2023/07/17 05:02:42;;;;;;;3.08;0.98;;;23.30;63.50;;;;;;5033435;28;20064;-64
2023/07/17 05:05:08;;;;;;;2.10;1.02;;;23.30;63.50;;;;;;5031094;28;20481;-64
2023/07/17 05:07:33;;;;;;;1.50;0.80;;;23.40;63.50;;;;;;5033380;28;20042;-63
2023/07/17 05:09:59;;;;;;;2.00;1.10;;;23.40;63.40;;;;;;5033431;28;20048;-63
2023/07/17 05:12:25;;;;;;;1.90;0.90;;;23.40;63.40;;;;;;5032701;28;20042;-64
2023/07/17 05:14:51;;;;;;;3.72;1.30;;;23.40;63.40;;;;;;5032690;28;20048;-63
2023/07/17 05:17:16;;;;;;;2.53;0.88;;;23.40;63.50;;;;;;5020425;28;20034;-64
2023/07/17 05:19:42;;;;;;;3.65;1.27;;;23.40;63.50;;;;;;5024692;28;20045;-63
2023/07/17 05:22:07;;;;;;;2.75;1.25;;;23.40;63.50;;;;;;5033178;28;20044;-63
2023/07/17 05:24:33;;;;;;;2.63;1.05;;;23.40;63.50;;;;;;5032296;28;20041;-64
2023/07/17 05:26:58;;;;;;;2.42;1.20;;;23.40;63.50;;;;;;5030890;28;20551;-63
2023/07/17 05:29:24;;;;;;;2.58;1.30;;;23.50;63.50;;;;;;5030872;28;20041;-63
2023/07/17 05:31:49;;;;;;;2.25;0.90;;;23.50;63.50;;;;;;5023891;28;20188;-63
2023/07/17 05:34:15;;;;;;;4.50;1.63;;;23.50;63.50;;;;;;5011728;28;20398;-63
2023/07/17 05:36:41;;;;;;;3.55;1.20;;;23.50;63.60;;;;;;5012960;28;20042;-62
2023/07/17 05:39:06;;;;;;;2.03;1.38;;;23.50;63.50;;;;;;5012606;28;20029;-64
2023/07/17 05:41:33;;;;;;;2.95;1.25;;;23.50;63.50;;;;;;5011286;28;20042;-63
2023/07/17 05:43:58;;;;;;;3.00;1.02;;;23.50;63.50;;;;;;5017823;28;20457;-62
2023/07/17 05:46:24;;;;;;;2.95;1.27;;;23.50;63.50;;;;;;5031135;28;20083;-63
2023/07/17 05:48:50;;;;;;;3.75;1.50;;;23.50;63.60;;;;;;5031236;28;20132;-64
2023/07/17 05:51:15;;;;;;;2.88;1.10;;;23.50;63.70;;;;;;5032613;28;20539;-62
2023/07/17 05:53:41;;;;;;;3.80;0.90;;;23.50;63.70;;;;;;5031463;28;20116;-63
2023/07/17 05:56:06;;;;;;;5.57;1.20;;;23.50;63.60;;;;;;5032915;28;20424;-62
2023/07/17 05:58:32;;;;;;;2.47;1.13;;;23.50;63.70;;;;;;5032330;28;20045;-63
2023/07/17 06:00:58;;;;;;;3.03;1.20;;;23.50;63.70;;;;;;5032186;28;20132;-63
2023/07/17 06:03:24;;;;;;;2.92;1.20;;;23.50;63.70;;;;;;5032645;28;20044;-62
2023/07/17 06:05:49;;;;;;;4.30;1.40;;;23.50;63.70;;;;;;5032135;28;20460;-62
2023/07/17 06:08:15;;;;;;;2.38;1.10;;;23.50;63.70;;;;;;5031776;28;20400;-62
2023/07/17 06:10:42;;;;;;;3.33;1.20;;;23.50;63.80;;;;;;5031877;28;20045;-62
2023/07/17 06:13:08;;;;;;;2.15;1.15;;;23.50;63.90;;;;;;5032658;28;20182;-62
2023/07/17 06:15:34;;;;;;;3.00;1.25;;;23.50;63.90;;;;;;5030982;28;20441;-61
2023/07/17 06:18:09;;;;;;;6.00;1.65;;;23.50;63.90;;;;;;5030801;28;20171;-61
2023/07/17 06:20:34;;;;;;;3.78;1.40;;;23.50;64.00;;;;;;5010016;28;20488;-63
2023/07/17 06:23:00;;;;;;;2.83;1.10;;;23.50;63.90;;;;;;5031551;28;20052;-63
2023/07/17 06:25:26;;;;;;;5.43;1.42;;;23.50;64.00;;;;;;5031916;28;20041;-62
2023/07/17 06:27:51;;;;;;;2.95;1.20;;;23.50;64.00;;;;;;5032019;28;20068;-64
2023/07/17 06:30:17;;;;;;;3.70;1.30;;;23.50;64.10;;;;;;5031930;28;20091;-60
2023/07/17 06:32:44;;;;;;;3.97;1.35;;;23.50;64.10;;;;;;5031337;28;20049;-60
2023/07/17 06:35:10;;;;;;;3.55;1.40;;;23.50;64.10;;;;;;5031692;28;20122;-62
2023/07/17 06:37:36;;;;;;;4.32;1.42;;;23.50;64.10;;;;;;5031336;28;20046;-63
2023/07/17 06:40:03;;;;;;;3.78;1.50;;;23.50;64.10;;;;;;5030432;28;20091;-64
2023/07/17 06:42:31;;;;;;;3.10;1.20;;;23.50;64.10;;;;;;5031311;28;20054;-63
2023/07/17 06:44:59;;;;;;;3.50;1.20;;;23.50;64.20;;;;;;5031602;28;20506;-64
2023/07/17 06:47:26;;;;;;;2.97;1.48;;;23.50;64.20;;;;;;5030227;28;20054;-63
2023/07/17 06:49:52;;;;;;;2.63;1.38;;;23.50;64.30;;;;;;5030922;28;20037;-63
2023/07/17 06:52:19;;;;;;;2.92;1.20;;;23.50;64.30;;;;;;5020580;28;20042;-63
2023/07/17 06:54:45;;;;;;;5.47;1.52;;;23.50;64.00;;;;;;5019112;28;20057;-63
2023/07/17 06:57:11;;;;;;;5.60;1.42;;;23.50;64.10;;;;;;5031492;28;20481;-61
2023/07/17 06:59:36;;;;;;;4.90;1.60;;;23.50;64.00;;;;;;5031569;28;20044;-63
2023/07/17 07:02:02;;;;;;;3.97;1.52;;;23.50;64.00;;;;;;5031443;28;20049;-61
2023/07/17 07:04:29;;;;;;;5.68;2.28;;;23.50;63.60;;;;;;5030807;28;20120;-61
2023/07/17 07:06:55;;;;;;;6.55;2.40;;;23.50;63.30;;;;;;5032185;28;20485;-61
2023/07/17 07:09:20;;;;;;;9.50;3.30;;;23.50;63.10;;;;;;5030416;28;20072;-61
2023/07/17 07:11:48;;;;;;;9.18;2.38;;;23.50;62.40;;;;;;5030491;28;20086;-61
2023/07/17 07:14:13;;;;;;;8.25;3.13;;;23.50;62.20;;;;;;5014563;28;20088;-61
2023/07/17 07:16:39;;;;;;;9.25;2.83;;;23.40;62.00;;;;;;5031802;28;20067;-61
2023/07/17 07:19:05;;;;;;;7.38;2.88;;;23.40;61.70;;;;;;5033692;28;20041;-61
2023/07/17 07:21:31;;;;;;;10.65;2.70;;;23.40;61.50;;;;;;5034700;28;20037;-61
2023/07/17 07:23:56;;;;;;;8.63;2.85;;;23.40;61.30;;;;;;5035405;28;20047;-61
2023/07/17 07:26:22;;;;;;;8.55;3.60;;;23.40;60.80;;;;;;5033123;28;20401;-61
2023/07/17 07:28:48;;;;;;;8.05;3.03;;;23.40;60.80;;;;;;5035180;28;20890;-61
2023/07/17 07:31:13;;;;;;;12.85;3.40;;;23.30;60.60;;;;;;5020937;28;20045;-60
2023/07/17 07:33:39;;;;;;;8.85;3.25;;;23.30;60.30;;;;;;5034198;28;20180;-61
2023/07/17 07:36:05;;;;;;;8.80;3.53;;;23.30;60.30;;;;;;5033968;28;20049;-61
2023/07/17 07:38:30;;;;;;;10.13;3.58;;;23.30;60.30;;;;;;5032454;28;20049;-61
2023/07/17 07:40:56;;;;;;;8.18;3.40;;;23.30;60.20;;;;;;5020579;28;20061;-61
2023/07/17 07:43:21;;;;;;;10.25;3.55;;;23.30;60.00;;;;;;5014193;28;20046;-61
2023/07/17 07:45:47;;;;;;;8.10;3.38;;;23.30;59.80;;;;;;5012739;28;20839;-62
2023/07/17 07:48:12;;;;;;;8.48;3.00;;;23.30;59.40;;;;;;5015186;28;20064;-60
2023/07/17 07:50:38;;;;;;;9.00;3.60;;;23.30;59.50;;;;;;5015073;28;20394;-61
2023/07/17 07:53:04;;;;;;;11.02;3.30;;;23.20;59.00;;;;;;5013338;28;20048;-61
2023/07/17 07:55:29;;;;;;;11.38;4.43;;;23.20;58.90;;;;;;5014610;28;20502;-61
2023/07/17 07:57:55;;;;;;;7.43;3.50;;;23.20;59.00;;;;;;5015302;28;20049;-61
2023/07/17 08:00:20;;;;;;;8.00;3.10;;;23.20;58.90;;;;;;5023287;28;20076;-61
2023/07/17 08:02:46;;;;;;;11.10;3.40;;;23.20;59.00;;;;;;5034134;28;20064;-61
2023/07/17 08:05:12;;;;;;;8.60;3.15;;;23.20;58.90;;;;;;5032956;28;20116;-60
2023/07/17 08:07:37;;;;;;;9.70;3.47;;;23.20;58.50;;;;;;5033030;28;20087;-60
2023/07/17 08:10:03;;;;;;;9.65;3.55;;;23.20;58.40;;;;;;5034347;28;20068;-61
2023/07/17 08:12:30;;;;;;;9.32;3.03;;;23.20;58.40;;;;;;5034188;28;20037;-61
2023/07/17 08:14:55;;;;;;;6.90;3.10;;;23.20;58.60;;;;;;5033737;28;20117;-61
2023/07/17 08:17:21;;;;;;;7.93;3.20;;;23.20;58.50;;;;;;5034601;28;20473;-61
2023/07/17 08:19:46;;;;;;;8.15;3.25;;;23.20;58.60;;;;;;5032474;28;20040;-61
2023/07/17 08:22:12;;;;;;;8.55;3.45;;;23.20;58.60;;;;;;5033418;28;20137;-61
2023/07/17 08:24:37;;;;;;;10.25;3.25;;;23.20;58.60;;;;;;5033839;28;20033;-61
2023/07/17 08:27:03;;;;;;;8.15;3.08;;;23.20;58.50;;;;;;5032433;28;20396;-61
2023/07/17 08:29:29;;;;;;;7.03;3.20;;;23.20;58.40;;;;;;5031845;28;20046;-61
2023/07/17 08:31:54;;;;;;;8.73;3.25;;;23.20;58.40;;;;;;5034237;28;20045;-61
2023/07/17 08:34:23;;;;;;;8.23;3.30;;;23.20;58.30;;;;;;5034044;28;20045;-61
2023/07/17 08:36:48;;;;;;;;;;;23.20;58.20;;;;;;5033080;28;20152;-60
2023/07/17 08:39:14;;;;;;;7.78;3.20;;;23.20;58.20;;;;;;5034181;28;20008;-61
2023/07/17 08:41:41;;;;;;;9.23;3.35;;;23.20;58.30;;;;;;5033094;28;20443;-60
2023/07/17 08:44:07;;;;;;;8.83;3.20;;;23.20;58.00;;;;;;5032032;28;20049;-60
2023/07/17 08:46:33;;;;;;;7.03;3.15;;;23.20;57.90;;;;;;5015597;28;20095;-60
2023/07/17 08:48:58;;;;;;;8.15;3.00;;;23.20;57.70;;;;;;5033119;28;20487;-60
2023/07/17 08:51:24;;;;;;;7.97;3.17;;;23.20;57.40;;;;;;5032358;28;20076;-60
2023/07/17 08:53:49;;;;;;;7.47;3.10;;;23.20;57.20;;;;;;5015595;28;20046;-60
2023/07/17 08:56:15;;;;;;;9.27;3.17;;;23.20;56.80;;;;;;5015127;28;20132;-60
2023/07/17 08:58:40;;;;;;;8.73;3.10;;;23.20;56.60;;;;;;5015957;28;20037;-61
2023/07/17 09:01:07;;;;;;;8.27;2.85;;;23.20;56.40;;;;;;5033186;28;20497;-60
2023/07/17 09:03:34;;;;;;;10.77;3.58;;;23.20;57.20;;;;;;5031198;28;20083;-60
2023/07/17 09:06:02;;;;;;;7.97;2.78;;;23.20;56.30;;;;;;5031854;28;20116;-60
2023/07/17 09:08:27;;;;;;;9.60;2.65;;;23.20;56.20;;;;;;5033342;28;20385;-60
2023/07/17 09:11:03;;;;;;;11.60;3.30;;;23.10;55.90;;;;;;5030721;28;20477;-60
2023/07/17 09:13:42;;;;;;;9.00;3.03;;;23.10;55.80;;;;;;5032944;28;20049;-60
2023/07/17 09:16:18;;;;;;;9.77;3.15;;;23.10;55.90;;;;;;5032024;28;20045;-60
2023/07/17 09:18:44;;;;;;;9.13;3.40;;;23.10;55.90;;;;;;5032229;28;20474;-60
2023/07/17 09:21:14;;;;;;;9.40;2.97;;;23.10;56.10;;;;;;5030957;28;20170;-60
2023/07/17 09:23:47;;;;;;;8.70;3.15;;;23.20;56.20;;;;;;5030430;28;20064;-60
2023/07/17 09:26:17;;;;;;;6.57;2.97;;;23.20;56.40;;;;;;5020886;28;20517;-60
2023/07/17 09:28:56;;;;;;;9.25;3.03;;;23.20;56.40;;;;;;5012978;28;20490;-60
2023/07/17 09:31:31;;;;;;;6.63;2.60;;;23.20;56.30;;;;;;5011454;28;20409;-60
2023/07/17 09:33:58;;;;;;;6.82;2.67;;;23.20;56.30;;;;;;5013169;28;20088;-60
2023/07/17 09:36:24;;;;;;;4.85;2.67;;;23.20;56.30;;;;;;5013245;28;20077;-60
2023/07/17 09:38:57;;;;;;;8.93;3.00;;;23.20;56.30;;;;;;5012558;28;20438;-60
2023/07/17 09:41:24;;;;;;;7.70;3.47;;;23.30;56.40;;;;;;5012761;28;20045;-60
2023/07/17 09:43:59;;;;;;;6.90;2.47;;;23.30;56.40;;;;;;5018433;28;20408;-60
2023/07/17 09:46:28;;;;;;;8.88;2.92;;;23.30;56.10;;;;;;5020464;28;20074;-60
2023/07/17 09:48:54;;;;;;;12.30;3.50;;;23.30;55.90;;;;;;5013185;28;20057;-60
2023/07/17 09:51:20;;;;;;;7.93;2.97;;;23.20;55.90;;;;;;5016241;28;20112;-59
2023/07/17 09:53:46;;;;;;;9.18;2.60;;;23.20;56.10;;;;;;5028959;28;20049;-59
2023/07/17 09:56:16;;;;;;;7.85;2.53;;;23.20;56.30;;;;;;5027813;28;20091;-61
2023/07/17 09:58:48;;;;;;;4.68;2.40;;;23.20;56.40;;;;;;5012529;28;20091;-60
2023/07/17 10:01:19;;;;;;;4.65;2.25;;;23.20;57.20;;;;;;5011251;28;20041;-61
2023/07/17 10:03:46;;;;;;;6.95;2.75;;;23.20;56.50;;;;;;5012229;28;20045;-61
2023/07/17 10:06:15;;;;;;;6.30;2.33;;;23.10;56.50;;;;;;5011810;28;20056;-60
2023/07/17 10:08:44;;;;;;;7.32;2.60;;;23.10;56.60;;;;;;5011166;28;20099;-61
2023/07/17 10:11:11;;;;;;;8.23;2.80;;;23.10;56.80;;;;;;5011204;28;20125;-60
2023/07/17 10:13:51;;;;;;;6.18;2.70;;;23.20;57.00;;;;;;4994690;28;20056;-60
2023/07/17 10:16:17;;;;;;;8.93;2.80;;;23.20;57.50;;;;;;5011551;28;20042;-60
2023/07/17 10:18:50;;;;;;;10.15;3.25;;;23.20;57.60;;;;;;5029621;28;20049;-60
2023/07/17 10:21:20;;;;;;;7.68;2.97;;;23.20;57.70;;;;;;5030596;28;20099;-61
2023/07/17 10:23:47;;;;;;;7.72;2.35;;;23.20;57.80;;;;;;5031671;28;20433;-60
2023/07/17 10:26:32;;;;;;;6.40;2.50;;;23.20;57.90;;;;;;5031569;28;20447;-61
2023/07/17 10:29:02;;;;;;;8.73;3.08;;;23.20;58.20;;;;;;5029745;28;20045;-61
2023/07/17 10:31:49;;;;;;;6.35;3.00;;;23.20;58.40;;;;;;5030473;28;20057;-61
2023/07/17 10:34:53;;;;;;;7.13;3.00;;;23.30;58.50;;;;;;5017856;28;20037;-61
2023/07/17 10:37:30;;;;;;;8.98;2.78;;;23.30;58.50;;;;;;5031786;28;20048;-61
2023/07/17 10:40:31;;;;;;;7.97;2.95;;;23.30;58.60;;;;;;5031719;28;20111;-61
2023/07/17 10:43:25;;;;;;;9.40;3.25;;;23.40;58.50;;;;;;5008857;28;20409;-61
2023/07/17 10:46:10;;;;;;;8.13;3.05;;;23.40;58.50;;;;;;5011971;28;20054;-61
2023/07/17 10:48:35;;;;;;;7.00;2.85;;;23.40;58.50;;;;;;5011381;28;20116;-61
2023/07/17 10:51:01;;;;;;;6.15;2.92;;;23.40;58.50;;;;;;5011781;28;20490;-63
2023/07/17 10:53:26;;;;;;;6.15;2.78;;;23.50;58.50;;;;;;5014001;28;20038;-69
2023/07/17 10:55:52;;;;;;;6.93;3.08;;;23.50;58.50;;;;;;5014393;28;20540;-69
2023/07/17 10:58:19;;;;;;;7.72;2.72;;;23.50;58.60;;;;;;4999087;28;20038;-64
2023/07/17 11:00:45;;;;;;;7.85;3.35;;;23.50;58.60;;;;;;5015761;28;20168;-61
2023/07/17 11:03:14;;;;;;;7.90;2.55;;;23.50;58.60;;;;;;5015329;28;20124;-65
2023/07/17 11:05:40;;;;;;;6.95;3.08;;;23.50;58.70;;;;;;5024559;28;20045;-60
2023/07/17 11:08:06;;;;;;;7.63;3.35;;;23.50;58.70;;;;;;5035457;28;20095;-60
2023/07/17 11:10:32;;;;;;;10.27;2.65;;;23.50;58.80;;;;;;5033998;28;20497;-60
2023/07/17 11:13:05;;;;;;;6.47;2.80;;;23.50;58.70;;;;;;5032771;28;20115;-60
2023/07/17 11:15:32;;;;;;;9.68;2.70;;;23.50;58.70;;;;;;5034973;28;20077;-60
2023/07/17 11:18:01;;;;;;;8.13;3.00;;;23.50;58.70;;;;;;5031520;28;20485;-61
2023/07/17 11:20:28;;;;;;;7.78;2.72;;;23.50;58.70;;;;;;5035001;28;20400;-60
2023/07/17 11:22:53;;;;;;;7.82;2.53;;;23.50;58.70;;;;;;5031546;28;20040;-61
2023/07/17 11:25:19;;;;;;;6.22;2.50;;;23.50;58.60;;;;;;5032814;28;20041;-60
2023/07/17 11:27:45;;;;;;;6.30;2.70;;;23.50;58.50;;;;;;5030627;28;20485;-60
2023/07/17 11:30:30;;;;;;;8.05;2.75;;;23.50;58.40;;;;;;5034778;28;20485;-60
2023/07/17 11:33:06;;;;;;;5.80;2.47;;;23.50;58.10;;;;;;5031225;28;20050;-60
2023/07/17 11:35:41;;;;;;;5.97;2.20;;;23.60;57.90;;;;;;5034641;28;20046;-60
2023/07/17 11:38:12;;;;;;;6.70;2.72;;;23.60;57.70;;;;;;5033969;28;20045;-60
2023/07/17 11:40:56;;;;;;;8.52;2.60;;;23.60;57.50;;;;;;5035109;28;20073;-60
2023/07/17 11:43:26;;;;;;;6.78;2.17;;;23.60;57.20;;;;;;5033672;28;20037;-60
2023/07/17 11:45:57;;;;;;;8.45;2.33;;;23.60;57.00;;;;;;5033934;28;20049;-60
2023/07/17 11:48:24;;;;;;;4.55;2.22;;;23.60;56.80;;;;;;5035141;28;20081;-60
2023/07/17 11:50:49;;;;;;;5.80;2.20;;;23.60;56.60;;;;;;5016806;28;20053;-61
2023/07/17 11:53:16;;;;;;;4.18;2.08;;;23.70;56.50;;;;;;5033905;28;20041;-59
2023/07/17 11:55:42;;;;;;;5.47;2.17;;;23.70;56.60;;;;;;5033202;28;20057;-59
2023/07/17 11:58:41;;;;;;;6.40;2.28;;;23.70;56.40;;;;;;5033428;28;20044;-60
2023/07/17 12:01:06;;;;;;;5.63;2.17;;;23.70;56.10;;;;;;5011269;28;20054;-61
2023/07/17 12:03:32;;;;;;;5.97;1.88;;;23.70;56.10;;;;;;5029995;28;20037;-60
2023/07/17 12:05:58;;;;;;;4.78;2.08;;;23.60;55.90;;;;;;5033577;28;20042;-60
2023/07/17 12:08:23;;;;;;;7.38;2.28;;;23.70;55.90;;;;;;5034804;28;20125;-60
2023/07/17 12:10:49;;;;;;;6.13;1.90;;;23.70;55.80;;;;;;5034234;28;20103;-60
2023/07/17 12:13:15;;;;;;;6.25;2.22;;;23.70;56.40;;;;;;5031993;28;20042;-60
2023/07/17 12:15:41;;;;;;;5.38;2.13;;;23.70;55.60;;;;;;5034288;28;20033;-60
2023/07/17 12:18:06;;;;;;;5.70;2.30;;;23.70;55.60;;;;;;5024276;28;20053;-60
2023/07/17 12:20:32;;;;;;;4.68;1.83;;;23.70;55.40;;;;;;5016547;28;20042;-60
2023/07/17 12:22:58;;;;;;;6.82;1.95;;;23.70;55.30;;;;;;5014708;28;20166;-59
2023/07/17 12:25:23;;;;;;;7.50;1.90;;;23.70;55.30;;;;;;5014849;28;20037;-59
2023/07/17 12:27:49;;;;;;;4.30;1.77;;;23.70;55.40;;;;;;5013689;28;20049;-60
2023/07/17 12:30:15;;;;;;;12.23;2.25;;;23.70;55.40;;;;;;5014731;28;20048;-60
2023/07/17 12:32:41;;;;;;;5.28;1.75;;;23.70;55.30;;;;;;5013406;28;20038;-60
2023/07/17 12:35:07;;;;;;;6.72;1.98;;;23.70;55.40;;;;;;5013952;28;20124;-60
2023/07/17 12:37:33;;;;;;;5.80;1.95;;;23.60;55.30;;;;;;5014207;28;20084;-60
2023/07/17 12:39:58;;;;;;;4.25;1.45;;;23.60;55.40;;;;;;5014719;28;20081;-60
2023/07/17 12:42:24;;;;;;;7.00;1.95;;;23.60;55.40;;;;;;5013837;28;20168;-60
2023/07/17 12:44:49;;;;;;;6.15;1.83;;;23.60;55.40;;;;;;5023521;28;20049;-60